Time;durP1;ratioP1;P1;durP2;ratioP2;P2;SDS_P1;SDS_P2;PMS_P1;PMS_P2;Temp;Humidity;BMP_temperature;BMP_pressure;BME280_temperature;BME280_humidity;BME280_pressure;Samples;Min_cycle;Max_cycle;Signal;HPM_P1;HPM_P2
2024/01/02 00:00:07;;;;;;;8.77;3.15;;;;;;;;;;5006317;28;20046;-67
2024/01/02 00:02:33;;;;;;;11.90;3.30;;;;;;;;;;5002126;28;20042;-65
2024/01/02 00:04:59;;;;;;;8.82;3.50;;;;;;;;;;5019448;28;20056;-66
2024/01/02 00:07:26;;;;;;;8.95;3.75;;;;;;;;;;4997857;28;20065;-63
2024/01/02 00:09:52;;;;;;;7.07;3.50;;;;;;;;;;5005289;28;20050;-67
2024/01/02 00:12:19;;;;;;;9.98;3.72;;;;;;;;;;5003273;28;20149;-64
2024/01/02 00:14:45;;;;;;;8.82;3.60;;;;;;;;;;5009607;28;20049;-64
2024/01/02 00:17:14;;;;;;;10.63;3.67;;;;;;;;;;5010120;28;20160;-63
2024/01/02 00:19:39;;;;;;;10.85;4.07;;;;;;;;;;5007115;28;20570;-64
2024/01/02 00:22:12;;;;;;;7.03;2.95;;;;;;;;;;5011276;28;20499;-64
2024/01/02 00:25:19;;;;;;;7.88;3.55;;;;;;;;;;4999341;28;20483;-66
2024/01/02 00:28:03;;;;;;;6.03;2.95;;;;;;;;;;5002988;28;20625;-66
2024/01/02 00:30:32;;;;;;;7.57;3.03;;;;;;;;;;5006193;28;20064;-64
2024/01/02 00:33:03;;;;;;;6.25;3.10;;;;;;;;;;5003639;28;20042;-63
2024/01/02 00:35:30;;;;;;;9.00;3.53;;;;;;;;;;5011246;28;20142;-66
2024/01/02 00:37:56;;;;;;;9.50;3.83;;;;;;;;;;5005433;28;20452;-64
2024/01/02 00:40:24;;;;;;;6.80;3.10;;;;;;;;;;4999975;28;20057;-64
2024/01/02 00:42:50;;;;;;;6.82;3.42;;;;;;;;;;5005344;28;20050;-64
2024/01/02 00:45:20;;;;;;;7.40;3.15;;;;;;;;;;5005879;28;20058;-62
2024/01/02 00:47:45;;;;;;;7.80;3.08;;;;;;;;;;5003281;28;20053;-70
2024/01/02 00:50:13;;;;;;;7.05;2.92;;;;;;;;;;5003609;28;20066;-66
2024/01/02 00:52:39;;;;;;;7.13;2.80;;;;;;;;;;5009875;28;20700;-65
2024/01/02 00:55:06;;;;;;;4.90;2.55;;;;;;;;;;5004317;28;20053;-64
2024/01/02 00:57:32;;;;;;;8.27;2.65;;;;;;;;;;5008145;28;20042;-64
2024/01/02 00:59:59;;;;;;;7.97;2.28;;;;;;;;;;5001262;28;20068;-63
2024/01/02 01:02:27;;;;;;;7.07;1.95;;;;;;;;;;5018039;28;20105;-63
2024/01/02 01:04:54;;;;;;;5.72;2.13;;;;;;;;;;5003518;28;20056;-63
2024/01/02 01:07:21;;;;;;;4.72;2.10;;;;;;;;;;5007572;28;20050;-64
2024/01/02 01:09:47;;;;;;;9.25;1.80;;;;;;;;;;5004844;28;20064;-63
2024/01/02 01:12:15;;;;;;;6.25;1.80;;;;;;;;;;5000302;28;20049;-63
2024/01/02 01:14:42;;;;;;;5.65;2.00;;;;;;;;;;5011274;28;20096;-63
2024/01/02 01:17:09;;;;;;;4.68;1.92;;;;;;;;;;5007423;28;20451;-66
2024/01/02 01:19:37;;;;;;;3.30;1.55;;;;;;;;;;5012262;28;20479;-64
2024/01/02 01:22:04;;;;;;;5.35;1.90;;;;;;;;;;5009382;28;20547;-63
2024/01/02 01:24:32;;;;;;;7.85;1.73;;;;;;;;;;5011498;28;20052;-65
2024/01/02 01:27:02;;;;;;;8.20;1.92;;;;;;;;;;4998263;28;20046;-64
2024/01/02 01:29:30;;;;;;;4.47;1.80;;;;;;;;;;5006260;28;20057;-66
2024/01/02 01:31:56;;;;;;;5.38;1.70;;;;;;;;;;5001435;28;20427;-63
2024/01/02 01:34:27;;;;;;;3.72;1.70;;;;;;;;;;4993981;28;20051;-65
2024/01/02 01:36:54;;;;;;;6.05;2.38;;;;;;;;;;5001479;28;20042;-65
2024/01/02 01:39:21;;;;;;;8.57;2.38;;;;;;;;;;5009284;28;20046;-65
2024/01/02 01:41:50;;;;;;;9.82;2.15;;;;;;;;;;5005206;28;20049;-63
2024/01/02 01:44:19;;;;;;;7.28;2.08;;;;;;;;;;5007436;28;20426;-63
2024/01/02 01:46:45;;;;;;;6.40;2.47;;;;;;;;;;5000439;28;20472;-63
2024/01/02 01:49:12;;;;;;;6.78;2.53;;;;;;;;;;4994543;28;20062;-65
2024/01/02 01:51:42;;;;;;;6.75;2.15;;;;;;;;;;4999215;28;20081;-62
2024/01/02 01:54:14;;;;;;;5.03;1.90;;;;;;;;;;5002350;28;20053;-63
2024/01/02 01:56:42;;;;;;;4.22;1.67;;;;;;;;;;4995609;28;20073;-63
2024/01/02 01:59:14;;;;;;;4.95;1.80;;;;;;;;;;5024672;28;20476;-65
2024/01/02 02:01:42;;;;;;;4.63;2.60;;;;;;;;;;5004327;28;20057;-64
2024/01/02 02:04:13;;;;;;;3.75;1.35;;;;;;;;;;5005411;28;20249;-71
2024/01/02 02:06:39;;;;;;;6.38;1.65;;;;;;;;;;5008871;28;20045;-64
2024/01/02 02:09:05;;;;;;;8.20;2.03;;;;;;;;;;5007785;28;20052;-64
2024/01/02 02:11:33;;;;;;;3.83;1.63;;;;;;;;;;4999410;28;20054;-63
2024/01/02 02:14:00;;;;;;;6.88;1.55;;;;;;;;;;4996702;28;20053;-65
2024/01/02 02:16:26;;;;;;;3.75;1.63;;;;;;;;;;5005161;28;20125;-65
2024/01/02 02:18:52;;;;;;;5.63;1.67;;;;;;;;;;5004001;28;20042;-62
2024/01/02 02:21:18;;;;;;;5.25;1.75;;;;;;;;;;4995709;28;20065;-64
2024/01/02 02:23:44;;;;;;;4.57;1.83;;;;;;;;;;5005123;28;20046;-66
2024/01/02 02:26:11;;;;;;;6.07;1.95;;;;;;;;;;5004257;28;20116;-63
2024/01/02 02:28:40;;;;;;;6.93;1.70;;;;;;;;;;5007387;28;20054;-63
2024/01/02 02:31:07;;;;;;;4.85;1.67;;;;;;;;;;5004953;28;20058;-64
2024/01/02 02:33:33;;;;;;;5.25;1.60;;;;;;;;;;5002640;28;20122;-64
2024/01/02 02:36:02;;;;;;;4.20;1.40;;;;;;;;;;5008128;28;20060;-64
2024/01/02 02:38:30;;;;;;;3.45;1.50;;;;;;;;;;5007032;28;20057;-64
2024/01/02 02:40:56;;;;;;;3.45;1.40;;;;;;;;;;5002117;28;20130;-62
2024/01/02 02:43:25;;;;;;;5.63;1.55;;;;;;;;;;5006593;28;20543;-66
2024/01/02 02:45:51;;;;;;;4.68;1.50;;;;;;;;;;5006465;28;20037;-63
2024/01/02 02:48:17;;;;;;;5.00;1.50;;;;;;;;;;5005766;28;20716;-63
2024/01/02 02:50:43;;;;;;;5.32;1.90;;;;;;;;;;4990811;28;20046;-65
2024/01/02 02:53:09;;;;;;;4.22;1.35;;;;;;;;;;4998951;28;20050;-64
2024/01/02 02:55:36;;;;;;;4.15;1.23;;;;;;;;;;5002921;28;20054;-64
2024/01/02 02:58:03;;;;;;;6.18;1.60;;;;;;;;;;5007173;28;20113;-65
2024/01/02 03:00:29;;;;;;;4.43;1.40;;;;;;;;;;5009039;28;20047;-68
2024/01/02 03:02:56;;;;;;;3.83;1.20;;;;;;;;;;5006894;28;20053;-62
2024/01/02 03:05:23;;;;;;;3.65;1.45;;;;;;;;;;5007461;28;20042;-63
2024/01/02 03:07:51;;;;;;;3.65;1.30;;;;;;;;;;5006477;28;20124;-65
2024/01/02 03:10:19;;;;;;;3.08;1.30;;;;;;;;;;5007548;28;20083;-63
2024/01/02 03:12:46;;;;;;;5.38;1.33;;;;;;;;;;5002820;28;20080;-62
2024/01/02 03:15:14;;;;;;;4.78;1.30;;;;;;;;;;5003599;28;20053;-67
2024/01/02 03:17:42;;;;;;;5.18;1.50;;;;;;;;;;5003604;28;20049;-62
2024/01/02 03:20:08;;;;;;;5.22;1.27;;;;;;;;;;4998996;28;20053;-67
2024/01/02 03:22:38;;;;;;;2.80;1.05;;;;;;;;;;5001068;28;20057;-64
2024/01/02 03:25:08;;;;;;;5.05;1.30;;;;;;;;;;5001209;28;20050;-63
2024/01/02 03:27:36;;;;;;;4.63;1.42;;;;;;;;;;4994511;28;20050;-65
2024/01/02 03:30:03;;;;;;;6.13;1.30;;;;;;;;;;5006936;28;20092;-64
2024/01/02 03:32:37;;;;;;;2.70;1.33;;;;;;;;;;4999864;28;20499;-66
2024/01/02 03:35:03;;;;;;;4.13;1.50;;;;;;;;;;5000163;28;20420;-64
2024/01/02 03:37:32;;;;;;;5.82;1.55;;;;;;;;;;5000567;28;20124;-63
2024/01/02 03:39:58;;;;;;;5.50;1.60;;;;;;;;;;4999889;28;20045;-62
2024/01/02 03:42:24;;;;;;;7.40;1.40;;;;;;;;;;4998880;28;20053;-63
2024/01/02 03:44:50;;;;;;;3.20;1.30;;;;;;;;;;4998428;28;20772;-64
2024/01/02 03:47:17;;;;;;;6.82;1.58;;;;;;;;;;4995833;28;20054;-64
2024/01/02 03:49:43;;;;;;;3.72;1.50;;;;;;;;;;4998164;28;20574;-63
2024/01/02 03:52:10;;;;;;;5.00;1.52;;;;;;;;;;4999549;28;20057;-61
2024/01/02 03:54:36;;;;;;;4.57;1.30;;;;;;;;;;4996713;28;20061;-64
2024/01/02 03:57:02;;;;;;;7.63;1.60;;;;;;;;;;5004026;28;20046;-64
2024/01/02 03:59:28;;;;;;;4.93;1.80;;;;;;;;;;4996645;28;20060;-64
2024/01/02 04:02:03;;;;;;;7.63;1.70;;;;;;;;;;4995284;28;20082;-64
2024/01/02 04:04:29;;;;;;;3.90;1.50;;;;;;;;;;4993393;28;20563;-61
2024/01/02 04:06:56;;;;;;;4.03;1.52;;;;;;;;;;4994049;28;20054;-64
2024/01/02 04:09:23;;;;;;;4.47;1.40;;;;;;;;;;4997110;28;21041;-63
2024/01/02 04:11:52;;;;;;;6.63;1.88;;;;;;;;;;5000098;28;20056;-62
2024/01/02 04:14:17;;;;;;;4.38;1.70;;;;;;;;;;4998519;28;20211;-63
2024/01/02 04:16:46;;;;;;;4.50;1.45;;;;;;;;;;4997233;28;20053;-62
2024/01/02 04:19:12;;;;;;;5.63;1.90;;;;;;;;;;5005185;28;20222;-63
2024/01/02 04:21:39;;;;;;;3.20;1.40;;;;;;;;;;4998784;28;20380;-62
2024/01/02 04:24:05;;;;;;;6.03;1.40;;;;;;;;;;5000142;28;20096;-62
2024/01/02 04:26:31;;;;;;;8.27;1.58;;;;;;;;;;5000000;28;20057;-63
2024/01/02 04:28:57;;;;;;;8.18;1.50;;;;;;;;;;5018990;28;20399;-61
2024/01/02 04:31:23;;;;;;;4.53;1.63;;;;;;;;;;4997946;28;20077;-63
2024/01/02 04:33:48;;;;;;;4.57;1.20;;;;;;;;;;5001633;28;20141;-63
2024/01/02 04:36:15;;;;;;;4.60;1.65;;;;;;;;;;4999491;28;20387;-62
2024/01/02 04:38:40;;;;;;;4.45;1.20;;;;;;;;;;5004202;28;20367;-61
2024/01/02 04:41:07;;;;;;;8.05;1.70;;;;;;;;;;5000907;28;20053;-63
2024/01/02 04:43:33;;;;;;;5.38;1.95;;;;;;;;;;4999421;28;20046;-64
2024/01/02 04:45:59;;;;;;;5.38;1.40;;;;;;;;;;4997102;28;20058;-64
2024/01/02 04:48:25;;;;;;;7.95;1.83;;;;;;;;;;4997276;28;20123;-63
2024/01/02 04:50:53;;;;;;;6.00;1.73;;;;;;;;;;5003099;28;20096;-62
2024/01/02 04:53:19;;;;;;;6.53;1.70;;;;;;;;;;5001010;28;20136;-62
2024/01/02 04:55:45;;;;;;;7.15;1.60;;;;;;;;;;4992176;28;20111;-62
2024/01/02 04:58:11;;;;;;;8.23;1.75;;;;;;;;;;4990809;28;20066;-64
2024/01/02 05:00:37;;;;;;;4.00;1.33;;;;;;;;;;4998503;28;20053;-64
2024/01/02 05:03:03;;;;;;;12.25;1.65;;;;;;;;;;4993822;28;20050;-63
2024/01/02 05:05:30;;;;;;;11.40;1.50;;;;;;;;;;4996504;28;20088;-62
2024/01/02 05:07:55;;;;;;;6.35;1.67;;;;;;;;;;4994109;28;20212;-64
2024/01/02 05:10:22;;;;;;;7.45;1.50;;;;;;;;;;4998526;28;20133;-62
2024/01/02 05:12:50;;;;;;;6.25;1.45;;;;;;;;;;4999113;28;20046;-62
2024/01/02 05:15:18;;;;;;;7.80;1.45;;;;;;;;;;4999127;28;20050;-63
2024/01/02 05:17:44;;;;;;;8.63;1.58;;;;;;;;;;5003885;28;20073;-63
2024/01/02 05:20:10;;;;;;;5.72;1.67;;;;;;;;;;4999327;28;20042;-62
2024/01/02 05:22:37;;;;;;;6.13;1.90;;;;;;;;;;5002245;28;20121;-61
2024/01/02 05:25:04;;;;;;;7.20;1.60;;;;;;;;;;5011143;28;20050;-63
2024/01/02 05:27:30;;;;;;;6.50;1.80;;;;;;;;;;5004153;28;20042;-63
2024/01/02 05:29:56;;;;;;;5.47;1.52;;;;;;;;;;5001763;28;20054;-63
2024/01/02 05:32:22;;;;;;;6.50;1.45;;;;;;;;;;5000903;28;20046;-62
2024/01/02 05:34:48;;;;;;;6.85;1.70;;;;;;;;;;4996909;28;20057;-62
2024/01/02 05:37:15;;;;;;;10.75;1.90;;;;;;;;;;4999967;28;20050;-64
2024/01/02 05:39:43;;;;;;;4.32;1.70;;;;;;;;;;4995950;28;20057;-64
2024/01/02 05:42:08;;;;;;;7.55;1.60;;;;;;;;;;4993068;28;20424;-62
2024/01/02 05:44:34;;;;;;;5.28;1.52;;;;;;;;;;4989464;28;20454;-63
2024/01/02 05:47:00;;;;;;;6.35;1.90;;;;;;;;;;4989038;28;20053;-64
2024/01/02 05:49:26;;;;;;;5.03;1.52;;;;;;;;;;4993609;28;20057;-64
2024/01/02 05:51:52;;;;;;;10.70;1.75;;;;;;;;;;4995403;28;20042;-61
2024/01/02 05:54:18;;;;;;;11.27;1.40;;;;;;;;;;5002024;28;20507;-63
2024/01/02 05:56:44;;;;;;;6.82;1.95;;;;;;;;;;5000239;28;20049;-63
2024/01/02 05:59:11;;;;;;;8.27;1.55;;;;;;;;;;4992421;28;20114;-63
2024/01/02 06:01:37;;;;;;;7.68;1.55;;;;;;;;;;5002552;28;20649;-64
2024/01/02 06:04:03;;;;;;;6.07;1.50;;;;;;;;;;4998300;28;20051;-64
2024/01/02 06:06:29;;;;;;;8.27;2.15;;;;;;;;;;4994215;28;20081;-63
2024/01/02 06:08:55;;;;;;;8.38;2.15;;;;;;;;;;4995316;28;20046;-61
2024/01/02 06:11:21;;;;;;;7.75;2.05;;;;;;;;;;4990700;28;20073;-63
2024/01/02 06:13:47;;;;;;;10.02;1.90;;;;;;;;;;4997713;28;20137;-62
2024/01/02 06:16:13;;;;;;;7.07;1.85;;;;;;;;;;5000574;28;20137;-63
2024/01/02 06:18:39;;;;;;;8.18;1.80;;;;;;;;;;4996984;28;20046;-63
2024/01/02 06:21:05;;;;;;;7.40;1.70;;;;;;;;;;4996882;28;20056;-63
2024/01/02 06:23:32;;;;;;;7.00;1.98;;;;;;;;;;5000594;28;20053;-66
2024/01/02 06:25:59;;;;;;;7.35;1.50;;;;;;;;;;4992734;28;20054;-62
2024/01/02 06:28:25;;;;;;;7.90;1.65;;;;;;;;;;4993166;28;20132;-62
2024/01/02 06:30:51;;;;;;;6.82;1.70;;;;;;;;;;4995473;28;20157;-62
2024/01/02 06:33:22;;;;;;;6.45;2.00;;;;;;;;;;4996488;28;20088;-64
2024/01/02 06:35:49;;;;;;;8.35;1.38;;;;;;;;;;4999164;28;20579;-65
2024/01/02 06:38:16;;;;;;;10.07;1.50;;;;;;;;;;4995450;28;20054;-62
2024/01/02 06:40:42;;;;;;;7.82;1.90;;;;;;;;;;4997696;28;20459;-63
2024/01/02 06:43:08;;;;;;;7.93;1.77;;;;;;;;;;4997572;28;20050;-63
2024/01/02 06:45:35;;;;;;;6.55;1.63;;;;;;;;;;4989086;28;20519;-60
2024/01/02 06:48:01;;;;;;;7.32;1.77;;;;;;;;;;4988578;28;20058;-62
2024/01/02 06:50:27;;;;;;;5.05;1.40;;;;;;;;;;4995492;28;20045;-62
2024/01/02 06:52:54;;;;;;;8.98;1.80;;;;;;;;;;4997049;28;20052;-63
2024/01/02 06:55:20;;;;;;;6.38;1.63;;;;;;;;;;5000141;28;20133;-64
2024/01/02 06:57:47;;;;;;;5.03;1.77;;;;;;;;;;5001025;28;20404;-63
2024/01/02 07:00:14;;;;;;;5.70;1.63;;;;;;;;;;5001379;28;20061;-63
2024/01/02 07:02:43;;;;;;;7.25;1.73;;;;;;;;;;4998266;28;20053;-67
2024/01/02 07:05:15;;;;;;;8.60;1.90;;;;;;;;;;4996662;28;20054;-64
2024/01/02 07:07:41;;;;;;;5.35;1.60;;;;;;;;;;4997293;28;20503;-65
2024/01/02 07:10:07;;;;;;;8.57;1.95;;;;;;;;;;4997410;28;20504;-65
2024/01/02 07:12:33;;;;;;;6.38;1.35;;;;;;;;;;4993984;28;20061;-65
2024/01/02 07:14:59;;;;;;;9.88;1.95;;;;;;;;;;4996420;28;20046;-63
2024/01/02 07:17:26;;;;;;;8.20;1.88;;;;;;;;;;4976624;28;20050;-64
2024/01/02 07:19:52;;;;;;;13.10;1.88;;;;;;;;;;4999194;28;20083;-62
2024/01/02 07:22:19;;;;;;;9.68;1.77;;;;;;;;;;4991104;28;20058;-62
2024/01/02 07:24:46;;;;;;;5.47;1.50;;;;;;;;;;5003294;28;20054;-67
2024/01/02 07:27:14;;;;;;;8.95;1.65;;;;;;;;;;4990146;28;20455;-62
2024/01/02 07:29:40;;;;;;;18.80;2.08;;;;;;;;;;4995392;28;20061;-64
2024/01/02 07:32:09;;;;;;;9.98;2.00;;;;;;;;;;4997530;28;20046;-63
2024/01/02 07:34:35;;;;;;;11.02;1.67;;;;;;;;;;4999106;28;20062;-63
2024/01/02 07:37:01;;;;;;;8.40;1.77;;;;;;;;;;4997997;28;20054;-64
2024/01/02 07:39:27;;;;;;;11.45;1.95;;;;;;;;;;4994478;28;20069;-62
2024/01/02 07:41:53;;;;;;;10.98;1.77;;;;;;;;;;4994164;28;20046;-69
2024/01/02 07:44:21;;;;;;;8.10;2.10;;;;;;;;;;4996828;28;20049;-64
2024/01/02 07:46:48;;;;;;;9.00;1.50;;;;;;;;;;5001358;28;20065;-65
2024/01/02 07:49:16;;;;;;;6.70;1.50;;;;;;;;;;4999241;28;20058;-68
2024/01/02 07:51:43;;;;;;;10.75;2.05;;;;;;;;;;4994258;28;20058;-65
2024/01/02 07:54:09;;;;;;;10.40;1.70;;;;;;;;;;5000328;28;20041;-64
2024/01/02 07:56:37;;;;;;;7.93;1.80;;;;;;;;;;4991401;28;20089;-64
2024/01/02 07:59:04;;;;;;;10.73;2.10;;;;;;;;;;5002485;28;20416;-65
2024/01/02 08:01:30;;;;;;;12.85;1.70;;;;;;;;;;4999679;28;20061;-62
2024/01/02 08:03:57;;;;;;;12.00;2.38;;;;;;;;;;5002622;28;20496;-65
2024/01/02 08:06:23;;;;;;;6.22;1.90;;;;;;;;;;4998402;28;20304;-65
2024/01/02 08:08:50;;;;;;;7.55;1.48;;;;;;;;;;5003250;28;20058;-64
2024/01/02 08:11:18;;;;;;;11.35;1.80;;;;;;;;;;5004341;28;20073;-64
2024/01/02 08:13:44;;;;;;;10.00;1.73;;;;;;;;;;5002123;28;20064;-66
2024/01/02 08:16:10;;;;;;;9.45;1.90;;;;;;;;;;5003920;28;20050;-64
2024/01/02 08:18:41;;;;;;;9.38;1.88;;;;;;;;;;4990247;28;20498;-67
2024/01/02 08:21:08;;;;;;;10.07;1.98;;;;;;;;;;5004081;28;20050;-66
2024/01/02 08:23:50;;;;;;;8.98;2.38;;;;;;;;;;4978291;28;20129;-65
2024/01/02 08:26:16;;;;;;;8.07;1.88;;;;;;;;;;4996871;28;20084;-67
2024/01/02 08:28:42;;;;;;;10.05;1.92;;;;;;;;;;5000335;28;20492;-65
2024/01/02 08:31:09;;;;;;;10.18;2.42;;;;;;;;;;5006131;28;20403;-64
2024/01/02 08:33:35;;;;;;;10.95;1.95;;;;;;;;;;5001879;28;20140;-64
2024/01/02 08:36:01;;;;;;;11.65;2.00;;;;;;;;;;5016708;28;20527;-65
2024/01/02 08:38:28;;;;;;;8.20;2.10;;;;;;;;;;4998958;28;20142;-65
2024/01/02 08:40:55;;;;;;;8.68;2.08;;;;;;;;;;5001915;28;20054;-65
2024/01/02 08:43:21;;;;;;;12.57;1.90;;;;;;;;;;5004595;28;20050;-66
2024/01/02 08:46:02;;;;;;;7.65;1.88;;;;;;;;;;5001018;28;20057;-68
2024/01/02 08:48:28;;;;;;;14.85;2.17;;;;;;;;;;5001788;28;20564;-66
2024/01/02 08:50:54;;;;;;;8.85;2.08;;;;;;;;;;5002943;28;20050;-67
2024/01/02 08:53:20;;;;;;;6.75;1.70;;;;;;;;;;4995841;28;20053;-65
2024/01/02 08:55:46;;;;;;;9.57;1.65;;;;;;;;;;4999371;28;20065;-62
2024/01/02 08:58:12;;;;;;;11.43;1.75;;;;;;;;;;5004952;28;20956;-67
2024/01/02 09:00:38;;;;;;;12.45;2.28;;;;;;;;;;4999389;28;20038;-71
2024/01/02 09:03:06;;;;;;;11.05;1.88;;;;;;;;;;5002323;28;20060;-66
2024/01/02 09:05:32;;;;;;;15.00;1.80;;;;;;;;;;5002458;28;20354;-62
2024/01/02 09:08:04;;;;;;;13.20;2.75;;;;;;;;;;5000819;28;20085;-68
2024/01/02 09:10:30;;;;;;;12.98;1.80;;;;;;;;;;5001841;28;20562;-65
2024/01/02 09:12:57;;;;;;;15.00;1.88;;;;;;;;;;5002991;28;20389;-66
2024/01/02 09:15:23;;;;;;;9.93;1.90;;;;;;;;;;5011103;28;20416;-64
2024/01/02 09:17:51;;;;;;;8.60;1.83;;;;;;;;;;5002509;28;20148;-66
2024/01/02 09:20:17;;;;;;;11.52;1.92;;;;;;;;;;5010287;28;20057;-64
2024/01/02 09:22:44;;;;;;;14.63;2.00;;;;;;;;;;5007135;28;20365;-66
2024/01/02 09:25:11;;;;;;;11.32;2.13;;;;;;;;;;5002471;28;20064;-65
2024/01/02 09:27:39;;;;;;;12.50;2.25;;;;;;;;;;4999028;28;20089;-66
2024/01/02 09:30:06;;;;;;;7.93;1.70;;;;;;;;;;5000938;28;20058;-64
2024/01/02 09:32:32;;;;;;;9.07;1.73;;;;;;;;;;5003181;28;20530;-64
2024/01/02 09:34:58;;;;;;;12.23;1.90;;;;;;;;;;5004317;28;20054;-65
2024/01/02 09:37:25;;;;;;;8.85;1.70;;;;;;;;;;5003424;28;20060;-67
2024/01/02 09:39:53;;;;;;;11.77;1.88;;;;;;;;;;4997150;28;20048;-66
2024/01/02 09:42:41;;;;;;;12.40;2.17;;;;;;;;;;4995461;28;20061;-67
2024/01/02 09:45:24;;;;;;;6.03;1.50;;;;;;;;;;5004457;28;20054;-65
2024/01/02 09:48:15;;;;;;;11.00;2.10;;;;;;;;;;4998591;28;20073;-66
2024/01/02 09:50:50;;;;;;;9.93;1.77;;;;;;;;;;5003990;28;20053;-65
2024/01/02 09:53:34;;;;;;;21.60;2.47;;;;;;;;;;5006079;28;20057;-63
2024/01/02 09:56:27;;;;;;;8.40;2.00;;;;;;;;;;5000424;28;20126;-67
2024/01/02 09:59:11;;;;;;;12.15;1.90;;;;;;;;;;5001095;28;20054;-67
2024/01/02 10:01:49;;;;;;;10.40;2.03;;;;;;;;;;5002353;28;20566;-67
2024/01/02 10:04:30;;;;;;;13.95;2.15;;;;;;;;;;5000477;28;20060;-66
2024/01/02 10:07:18;;;;;;;9.02;2.03;;;;;;;;;;4999273;28;20145;-64
2024/01/02 10:10:06;;;;;;;9.80;2.08;;;;;;;;;;5003162;28;20050;-67
2024/01/02 10:12:49;;;;;;;11.90;2.17;;;;;;;;;;4997862;28;20050;-66
2024/01/02 10:15:45;;;;;;;19.42;2.95;;;;;;;;;;5001729;28;20054;-65
2024/01/02 10:18:19;;;;;;;10.80;2.00;;;;;;;;;;4991798;28;20057;-62
2024/01/02 10:21:21;;;;;;;18.10;1.83;;;;;;;;;;4999545;28;20132;-66
2024/01/02 10:24:31;;;;;;;29.77;2.25;;;;;;;;;;5002230;28;20134;-65
2024/01/02 10:27:09;;;;;;;14.23;1.90;;;;;;;;;;4949527;28;20126;-67
2024/01/02 10:30:01;;;;;;;20.38;2.47;;;;;;;;;;4952132;28;20096;-65
2024/01/02 10:32:47;;;;;;;5.35;1.60;;;;;;;;;;4937406;28;20051;-67
2024/01/02 10:35:36;;;;;;;18.83;2.60;;;;;;;;;;4931899;28;20058;-65
2024/01/02 10:38:12;;;;;;;17.35;2.30;;;;;;;;;;4945738;28;20069;-66
2024/01/02 10:40:42;;;;;;;13.35;1.75;;;;;;;;;;4944179;28;20125;-65
2024/01/02 10:43:30;;;;;;;12.77;2.20;;;;;;;;;;4950050;28;20473;-64
2024/01/02 10:46:11;;;;;;;11.77;2.30;;;;;;;;;;4928869;28;20058;-66
2024/01/02 10:49:01;;;;;;;16.00;2.00;;;;;;;;;;4952717;28;20398;-66
2024/01/02 10:51:40;;;;;;;8.50;1.85;;;;;;;;;;4936084;28;20142;-66
2024/01/02 10:54:13;;;;;;;10.75;2.10;;;;;;;;;;4944290;28;20565;-64
2024/01/02 10:56:44;;;;;;;15.38;2.13;;;;;;;;;;4945632;28;20105;-67
2024/01/02 10:59:32;;;;;;;11.15;2.30;;;;;;;;;;4946980;28;20051;-65
2024/01/02 11:02:13;;;;;;;16.13;2.00;;;;;;;;;;4946063;28;20071;-66
2024/01/02 11:04:53;;;;;;;8.38;1.75;;;;;;;;;;5000903;28;20057;-66
2024/01/02 11:07:23;;;;;;;11.35;2.42;;;;;;;;;;5003800;28;20053;-67
2024/01/02 11:10:02;;;;;;;15.63;2.42;;;;;;;;;;5003455;28;20111;-64
2024/01/02 11:12:36;;;;;;;11.23;1.58;;;;;;;;;;4998304;28;20496;-65
2024/01/02 11:15:05;;;;;;;12.45;1.83;;;;;;;;;;5005052;28;20061;-68
2024/01/02 11:17:36;;;;;;;16.17;2.15;;;;;;;;;;5007013;28;20056;-68
2024/01/02 11:20:08;;;;;;;14.50;1.75;;;;;;;;;;5011596;28;20060;-64
2024/01/02 11:22:41;;;;;;;18.55;2.35;;;;;;;;;;5010175;28;20557;-67
2024/01/02 11:25:09;;;;;;;9.02;2.15;;;;;;;;;;5008032;28;20077;-67
2024/01/02 11:27:37;;;;;;;6.78;1.98;;;;;;;;;;5009868;28;20046;-65
2024/01/02 11:30:10;;;;;;;11.32;2.30;;;;;;;;;;5006621;28;20096;-67
2024/01/02 11:33:31;;;;;;;12.85;1.90;;;;;;;;;;5007735;28;20135;-66
2024/01/02 11:36:23;;;;;;;7.35;1.88;;;;;;;;;;4947990;28;20109;-65
2024/01/02 11:38:58;;;;;;;13.88;1.90;;;;;;;;;;4937532;28;20451;-67
2024/01/02 11:41:48;;;;;;;5.60;1.50;;;;;;;;;;4947505;28;20058;-69
2024/01/02 11:44:19;;;;;;;7.28;1.83;;;;;;;;;;4947135;28;20078;-66
2024/01/02 11:46:48;;;;;;;6.88;2.05;;;;;;;;;;4949493;28;20051;-63
2024/01/02 11:49:17;;;;;;;6.78;1.95;;;;;;;;;;4949976;28;20161;-65
2024/01/02 11:52:10;;;;;;;7.28;1.65;;;;;;;;;;4951406;28;20050;-65
2024/01/02 11:55:03;;;;;;;6.57;2.10;;;;;;;;;;4948861;28;20125;-64
2024/01/02 11:57:51;;;;;;;6.80;2.00;;;;;;;;;;4948377;28;20090;-64
2024/01/02 12:00:46;;;;;;;15.65;2.55;;;;;;;;;;4952456;28;20576;-63
2024/01/02 12:03:50;;;;;;;12.57;2.28;;;;;;;;;;4895315;29;20096;-65
2024/01/02 12:07:37;;;;;;;11.93;2.05;;;;;;;;;;4905074;29;20048;-67
2024/01/02 12:10:41;;;;;;;9.43;1.88;;;;;;;;;;4941631;28;20478;-69
2024/01/02 12:13:33;;;;;;;13.60;1.92;;;;;;;;;;4946491;28;20688;-66
2024/01/02 12:16:26;;;;;;;10.05;2.00;;;;;;;;;;4948923;28;20047;-66
2024/01/02 12:18:54;;;;;;;11.10;2.50;;;;;;;;;;4948124;28;20093;-68
2024/01/02 12:21:22;;;;;;;11.95;2.20;;;;;;;;;;4947202;28;20536;-68
2024/01/02 12:23:50;;;;;;;9.85;2.10;;;;;;;;;;4948382;28;20055;-66
2024/01/02 12:26:21;;;;;;;8.73;2.17;;;;;;;;;;4949958;28;20146;-67
2024/01/02 12:28:48;;;;;;;8.13;1.70;;;;;;;;;;4949365;28;20417;-66
2024/01/02 12:31:19;;;;;;;11.27;2.15;;;;;;;;;;4945225;28;20065;-68
2024/01/02 12:34:00;;;;;;;12.65;2.38;;;;;;;;;;4940402;28;20051;-69
2024/01/02 12:37:27;;;;;;;8.43;1.65;;;;;;;;;;4949086;28;20051;-68
2024/01/02 12:40:03;;;;;;;9.93;2.03;;;;;;;;;;4943418;28;20058;-67
2024/01/02 12:42:36;;;;;;;8.13;2.13;;;;;;;;;;4979795;28;20855;-68
2024/01/02 12:45:11;;;;;;;10.38;2.20;;;;;;;;;;4982114;28;20050;-68
2024/01/02 12:47:41;;;;;;;6.68;1.85;;;;;;;;;;4977072;28;20073;-68
2024/01/02 12:50:28;;;;;;;8.65;1.92;;;;;;;;;;4981408;28;20055;-66
2024/01/02 12:53:02;;;;;;;5.93;1.88;;;;;;;;;;4976885;28;20054;-68
2024/01/02 12:55:29;;;;;;;8.52;2.10;;;;;;;;;;4975620;28;20047;-67
2024/01/02 12:57:55;;;;;;;18.77;2.25;;;;;;;;;;4976855;28;20433;-67
2024/01/02 13:00:23;;;;;;;6.07;1.83;;;;;;;;;;4982814;28;20100;-65
2024/01/02 13:02:50;;;;;;;6.63;2.08;;;;;;;;;;4977918;28;20062;-65
2024/01/02 13:05:16;;;;;;;10.18;2.00;;;;;;;;;;4949191;28;20140;-66
2024/01/02 13:07:44;;;;;;;5.20;2.28;;;;;;;;;;4982782;28;20042;-66
2024/01/02 13:10:10;;;;;;;9.88;2.40;;;;;;;;;;4981126;28;20054;-67
2024/01/02 13:12:37;;;;;;;9.35;2.28;;;;;;;;;;4984453;28;20076;-68
2024/01/02 13:15:06;;;;;;;12.85;1.92;;;;;;;;;;5007690;28;20135;-66
2024/01/02 13:17:33;;;;;;;9.35;2.10;;;;;;;;;;5004475;28;20046;-64
2024/01/02 13:20:01;;;;;;;16.67;2.55;;;;;;;;;;5002308;28;20054;-67
2024/01/02 13:22:27;;;;;;;13.63;2.50;;;;;;;;;;5004086;28;20054;-67
2024/01/02 13:24:54;;;;;;;10.10;2.67;;;;;;;;;;5007205;28;20049;-66
2024/01/02 13:27:28;;;;;;;9.88;2.40;;;;;;;;;;5003487;28;20065;-66
2024/01/02 13:29:57;;;;;;;8.57;2.00;;;;;;;;;;5004702;28;20054;-66
2024/01/02 13:32:25;;;;;;;7.32;2.28;;;;;;;;;;4996307;28;20066;-65
2024/01/02 13:34:53;;;;;;;8.13;2.10;;;;;;;;;;5005834;28;20381;-67
2024/01/02 13:37:23;;;;;;;6.18;1.90;;;;;;;;;;5006647;28;20927;-67
2024/01/02 13:39:50;;;;;;;6.03;2.17;;;;;;;;;;5002889;28;21209;-65
2024/01/02 13:42:29;;;;;;;5.85;1.80;;;;;;;;;;5005818;28;20076;-67
2024/01/02 13:44:57;;;;;;;9.48;1.73;;;;;;;;;;5008009;28;20159;-67
2024/01/02 13:47:44;;;;;;;13.77;1.88;;;;;;;;;;5004754;28;20259;-68
2024/01/02 13:50:10;;;;;;;6.60;1.90;;;;;;;;;;5004591;28;20050;-66
2024/01/02 13:52:38;;;;;;;10.35;1.98;;;;;;;;;;5004190;28;20092;-65
2024/01/02 13:55:05;;;;;;;7.75;1.80;;;;;;;;;;5007901;28;20504;-66
2024/01/02 13:57:34;;;;;;;6.72;1.60;;;;;;;;;;5002812;28;20051;-67
2024/01/02 14:00:17;;;;;;;12.57;2.00;;;;;;;;;;5006604;28;20128;-67
2024/01/02 14:02:49;;;;;;;10.75;2.03;;;;;;;;;;5000544;28;20038;-66
2024/01/02 14:05:21;;;;;;;10.45;1.80;;;;;;;;;;4989885;28;20073;-67
2024/01/02 14:07:51;;;;;;;5.00;1.70;;;;;;;;;;5004716;28;20123;-66
2024/01/02 14:10:27;;;;;;;8.93;2.00;;;;;;;;;;5002916;28;20057;-66
2024/01/02 14:12:53;;;;;;;12.48;2.38;;;;;;;;;;5000015;28;20114;-67
2024/01/02 14:15:22;;;;;;;15.35;1.90;;;;;;;;;;5004563;28;20081;-64
2024/01/02 14:18:01;;;;;;;12.95;2.15;;;;;;;;;;5005120;28;20518;-65
2024/01/02 14:20:40;;;;;;;14.50;2.65;;;;;;;;;;4998925;28;20108;-67
2024/01/02 14:23:35;;;;;;;11.70;1.98;;;;;;;;;;5002670;28;20053;-66
2024/01/02 14:26:32;;;;;;;17.17;2.15;;;;;;;;;;5005724;28;20115;-65
2024/01/02 14:29:04;;;;;;;11.77;2.08;;;;;;;;;;4983657;28;20512;-67
2024/01/02 14:31:46;;;;;;;15.90;2.22;;;;;;;;;;4998445;28;20072;-70
2024/01/02 14:34:23;;;;;;;14.35;1.90;;;;;;;;;;4996712;28;20064;-66
2024/01/02 14:37:01;;;;;;;4.88;1.65;;;;;;;;;;4996458;28;20238;-67
2024/01/02 14:40:05;;;;;;;6.65;1.70;;;;;;;;;;5008806;28;20109;-66
2024/01/02 14:42:56;;;;;;;10.20;1.48;;;;;;;;;;5004025;28;20141;-65
2024/01/02 14:46:03;;;;;;;7.47;1.50;;;;;;;;;;5003465;28;20688;-63
2024/01/02 14:49:09;;;;;;;5.35;1.50;;;;;;;;;;4993122;28;20058;-66
2024/01/02 14:51:50;;;;;;;8.27;1.85;;;;;;;;;;4995876;28;20133;-64
2024/01/02 14:54:54;;;;;;;7.40;1.75;;;;;;;;;;4992994;28;20274;-65
2024/01/02 14:57:42;;;;;;;14.23;2.00;;;;;;;;;;4997523;28;20161;-64
2024/01/02 15:00:11;;;;;;;7.25;1.92;;;;;;;;;;4998761;28;20256;-66
2024/01/02 15:03:02;;;;;;;6.55;1.58;;;;;;;;;;5006968;28;20353;-65